createdAt,value
2022-09-12T00:03:58.101Z,99.90
2022-09-12T00:06:27.786Z,99.90
2022-09-12T00:08:55.185Z,99.90
2022-09-12T00:11:21.929Z,99.90
2022-09-12T00:13:48.947Z,99.90
2022-09-12T00:16:25.576Z,99.90
2022-09-12T00:18:53.802Z,99.90
2022-09-12T00:21:21.548Z,99.90
2022-09-12T00:23:48.771Z,99.90
2022-09-12T00:26:15.524Z,99.90
2022-09-12T00:28:42.183Z,99.90
2022-09-12T00:31:10.493Z,99.90
2022-09-12T00:33:37.172Z,99.90
2022-09-12T00:36:05.591Z,99.90
2022-09-12T00:38:32.527Z,99.90
2022-09-12T00:40:59.305Z,99.90
2022-09-12T00:43:34.989Z,99.90
2022-09-12T00:46:22.538Z,99.90
2022-09-12T00:48:59.568Z,99.90
2022-09-12T00:51:26.825Z,99.90
2022-09-12T00:53:53.749Z,99.90
2022-09-12T00:56:20.783Z,99.90
2022-09-12T00:59:00.573Z,99.90
2022-09-12T01:01:31.740Z,99.90
2022-09-12T01:03:59.223Z,99.90
2022-09-12T01:06:27.289Z,99.90
2022-09-12T01:08:54.984Z,99.90
2022-09-12T01:11:22.074Z,99.90
2022-09-12T01:13:49.741Z,99.90
2022-09-12T01:16:16.568Z,99.90
2022-09-12T01:18:59.826Z,99.90
2022-09-12T01:21:34.803Z,99.90
2022-09-12T01:24:04.394Z,99.90
2022-09-12T01:29:16.828Z,99.90
2022-09-12T01:31:49.622Z,99.90
2022-09-12T01:34:26.376Z,99.90
2022-09-12T01:37:02.239Z,99.90
2022-09-12T01:39:28.897Z,99.90
2022-09-12T01:41:58.648Z,99.90
2022-09-12T01:44:40.528Z,99.90
2022-09-12T01:47:11.381Z,99.90
2022-09-12T01:49:41.714Z,99.90
2022-09-12T01:52:16.751Z,99.90
2022-09-12T01:54:46.299Z,99.90
2022-09-12T01:57:16.968Z,99.90
2022-09-12T01:59:51.220Z,99.90
2022-09-12T02:02:39.185Z,99.90
2022-09-12T02:05:16.211Z,99.90
2022-09-12T02:07:54.023Z,99.90
2022-09-12T02:10:23.291Z,99.90
2022-09-12T02:12:55.622Z,99.90
2022-09-12T02:17:50.056Z,99.90
2022-09-12T02:20:37.429Z,99.90
2022-09-12T02:23:09.164Z,99.90
2022-09-12T02:25:37.899Z,99.90
2022-09-12T02:28:06.917Z,99.90
2022-09-12T02:33:01.654Z,99.90
2022-09-12T02:38:07.553Z,99.90
2022-09-12T02:40:35.835Z,99.90
2022-09-12T02:43:03.636Z,99.90
2022-09-12T02:45:32.244Z,99.90
2022-09-12T02:48:02.580Z,99.90
2022-09-12T02:50:29.653Z,99.90
2022-09-12T02:52:59.835Z,99.90
2022-09-12T02:55:30.133Z,99.90
2022-09-12T02:57:56.794Z,99.90
2022-09-12T03:00:24.107Z,99.90
2022-09-12T03:03:00.212Z,99.90
2022-09-12T03:05:28.856Z,99.90
2022-09-12T03:08:10.697Z,99.90
2022-09-12T03:10:42.909Z,99.90
2022-09-12T03:13:09.408Z,99.90
2022-09-12T03:15:43.060Z,99.90
2022-09-12T03:18:35.972Z,99.90
2022-09-12T03:21:07.275Z,99.90
2022-09-12T03:23:37.530Z,99.90
2022-09-12T03:26:07.278Z,99.90
2022-09-12T03:28:34.911Z,99.90
2022-09-12T03:31:11.514Z,99.90
2022-09-12T03:33:38.107Z,99.90
2022-09-12T03:36:04.809Z,99.90
2022-09-12T03:38:31.475Z,99.90
2022-09-12T03:40:58.082Z,99.90
2022-09-12T03:43:24.645Z,99.90
2022-09-12T03:45:54.239Z,99.90
2022-09-12T03:48:21.222Z,99.90
2022-09-12T03:50:47.783Z,99.90
2022-09-12T03:53:17.236Z,99.90
2022-09-12T03:55:44.375Z,99.90
2022-09-12T03:58:10.981Z,99.90
2022-09-12T04:00:38.575Z,99.90
2022-09-12T04:03:05.300Z,99.90
2022-09-12T04:05:31.904Z,99.90
2022-09-12T04:07:58.451Z,99.90
2022-09-12T04:10:25.004Z,99.90
2022-09-12T04:12:51.805Z,99.90
2022-09-12T04:15:18.622Z,99.90
2022-09-12T04:17:45.300Z,99.90
2022-09-12T04:20:11.973Z,99.90
2022-09-12T04:22:38.631Z,99.90
2022-09-12T04:25:05.487Z,99.90
2022-09-12T04:27:32.131Z,99.90
2022-09-12T04:29:59.561Z,99.90
2022-09-12T04:32:26.178Z,99.90
2022-09-12T04:34:52.728Z,99.90
2022-09-12T04:37:19.382Z,99.90
2022-09-12T04:39:45.982Z,99.90
2022-09-12T04:42:12.555Z,99.90
2022-09-12T04:44:39.095Z,99.90
2022-09-12T04:47:05.707Z,99.90
2022-09-12T04:49:32.281Z,99.90
2022-09-12T04:51:58.848Z,99.90
2022-09-12T04:54:25.735Z,99.90
2022-09-12T04:56:52.729Z,99.90
2022-09-12T04:59:21.729Z,99.90
2022-09-12T05:01:48.642Z,99.90
2022-09-12T05:04:15.682Z,99.90
2022-09-12T05:06:42.624Z,99.90
2022-09-12T05:09:11.587Z,99.90
2022-09-12T05:12:03.309Z,99.90
2022-09-12T05:14:26.580Z,99.90
2022-09-12T05:16:53.200Z,99.90
2022-09-12T05:19:19.856Z,99.90
2022-09-12T05:21:46.487Z,99.90
2022-09-12T05:24:13.053Z,99.90
2022-09-12T05:26:39.637Z,99.90
2022-09-12T05:29:07.026Z,99.90
2022-09-12T05:34:01.202Z,99.90
2022-09-12T05:36:29.351Z,99.90
2022-09-12T05:41:25.217Z,99.90
2022-09-12T05:43:55.244Z,99.90
2022-09-12T05:46:22.926Z,99.90
2022-09-12T05:51:23.480Z,99.90
2022-09-12T05:53:51.511Z,99.90
2022-09-12T05:56:19.454Z,99.90
2022-09-12T05:58:47.221Z,99.90
2022-09-12T06:01:15.136Z,99.90
2022-09-12T06:03:49.018Z,99.90
2022-09-12T06:06:16.498Z,99.90
2022-09-12T06:08:44.216Z,99.90
2022-09-12T06:11:15.394Z,99.90
2022-09-12T06:13:42.430Z,99.90
2022-09-12T06:16:13.573Z,99.90
2022-09-12T06:18:41.463Z,99.90
2022-09-12T06:21:12.094Z,99.90
2022-09-12T06:23:39.349Z,99.90
2022-09-12T06:26:07.004Z,99.90
2022-09-12T06:28:35.206Z,99.90
2022-09-12T06:31:05.993Z,99.90
2022-09-12T06:33:36.487Z,99.90
2022-09-12T06:36:11.547Z,99.90
2022-09-12T06:38:39.135Z,99.90
2022-09-12T06:41:07.132Z,99.90
2022-09-12T06:43:34.539Z,99.90
2022-09-12T06:46:01.655Z,99.90
2022-09-12T06:48:28.415Z,99.90
2022-09-12T06:50:56.428Z,99.90
2022-09-12T06:53:23.067Z,99.90
2022-09-12T06:56:00.550Z,99.90
2022-09-12T06:58:27.676Z,99.90
2022-09-12T07:01:02.385Z,99.90
2022-09-12T07:03:29.533Z,99.90
2022-09-12T07:05:56.188Z,99.90
2022-09-12T07:08:23.140Z,99.90
2022-09-12T07:10:49.762Z,99.90
2022-09-12T07:13:16.398Z,99.90
2022-09-12T07:15:43.006Z,99.90
2022-09-12T07:20:37.250Z,99.90
2022-09-12T07:23:03.879Z,99.90
2022-09-12T07:25:30.502Z,99.90
2022-09-12T07:27:57.161Z,99.90
2022-09-12T07:30:23.740Z,99.90
2022-09-12T07:32:54.085Z,99.90
2022-09-12T07:35:20.962Z,99.90
2022-09-12T07:37:47.904Z,99.90
2022-09-12T07:42:41.625Z,99.90
2022-09-12T07:45:08.488Z,99.90
2022-09-12T07:47:35.342Z,99.90
2022-09-12T07:50:02.442Z,99.90
2022-09-12T07:54:56.212Z,99.90
2022-09-12T07:57:22.954Z,99.90
2022-09-12T07:59:53.061Z,99.90
2022-09-12T08:02:20.343Z,99.90
2022-09-12T08:04:47.430Z,99.90
2022-09-12T08:07:14.403Z,99.90
2022-09-12T08:12:08.420Z,99.90
2022-09-12T08:14:35.078Z,99.90
2022-09-12T08:17:01.753Z,99.90
2022-09-12T08:19:28.425Z,99.90
2022-09-12T08:21:55.076Z,99.90
2022-09-12T08:24:21.796Z,99.90
2022-09-12T08:26:48.499Z,99.90
2022-09-12T08:31:42.583Z,99.90
2022-09-12T08:34:09.526Z,99.90
2022-09-12T08:36:36.287Z,99.90
2022-09-12T08:39:07.032Z,99.90
2022-09-12T08:41:41.078Z,99.90
2022-09-12T08:44:26.463Z,99.90
2022-09-12T08:47:02.170Z,99.90
2022-09-12T08:49:28.823Z,99.90
2022-09-12T08:54:25.147Z,99.90
2022-09-12T08:56:53.980Z,99.90
2022-09-12T08:59:20.860Z,99.90
2022-09-12T09:01:52.080Z,99.90
2022-09-12T09:04:30.363Z,99.90
2022-09-12T09:07:15.895Z,99.90
2022-09-12T09:09:51.800Z,99.90
2022-09-12T09:12:27.576Z,99.90
2022-09-12T09:17:25.407Z,99.90
2022-09-12T09:20:04.965Z,99.90
2022-09-12T09:22:38.287Z,99.90
2022-09-12T09:27:44.021Z,99.90
2022-09-12T09:30:15.471Z,99.90
2022-09-12T09:32:42.940Z,99.90
2022-09-12T09:35:36.757Z,99.90
2022-09-12T09:38:06.427Z,99.90
2022-09-12T09:40:38.272Z,99.90
2022-09-12T09:43:15.210Z,99.90
2022-09-12T09:45:44.582Z,99.90
2022-09-12T09:48:19.374Z,99.90
2022-09-12T09:50:47.110Z,99.90
2022-09-12T09:53:29.817Z,99.90
2022-09-12T09:58:31.075Z,99.90
2022-09-12T10:01:01.982Z,99.90
2022-09-12T10:03:30.179Z,99.90
2022-09-12T10:06:01.247Z,99.90
2022-09-12T10:08:32.004Z,99.90
2022-09-12T10:11:01.875Z,99.90
2022-09-12T10:13:39.852Z,99.90
2022-09-12T10:21:01.779Z,99.90
2022-09-12T10:23:41.040Z,99.90
2022-09-12T10:26:12.214Z,99.90
2022-09-12T10:28:40.169Z,99.90
2022-09-12T10:33:41.479Z,99.90
2022-09-12T10:36:08.235Z,99.90
2022-09-12T10:41:04.119Z,99.90
2022-09-12T10:43:33.782Z,99.90
2022-09-12T10:46:20.450Z,99.90
2022-09-12T10:48:48.136Z,99.90
2022-09-12T10:51:23.959Z,99.90
2022-09-12T10:53:51.463Z,99.90
2022-09-12T10:56:25.888Z,99.90
2022-09-12T10:59:11.897Z,99.90
2022-09-12T11:01:47.211Z,99.90
2022-09-12T11:04:13.855Z,99.90
2022-09-12T11:09:19.257Z,99.90
2022-09-12T11:11:54.280Z,99.90
2022-09-12T11:14:44.215Z,99.90
2022-09-12T11:17:16.861Z,99.90
2022-09-12T11:19:57.284Z,99.90
2022-09-12T11:22:44.203Z,99.90
2022-09-12T11:27:40.914Z,99.90
2022-09-12T11:32:41.389Z,99.90
2022-09-12T11:35:15.177Z,99.90
2022-09-12T11:45:13.654Z,99.90
2022-09-12T11:52:37.225Z,99.90
2022-09-12T12:34:37.704Z,99.90
2022-09-12T12:37:19.775Z,99.90
2022-09-12T12:44:45.699Z,99.90
2022-09-12T13:46:04.124Z,99.90
2022-09-12T13:48:30.941Z,99.90
2022-09-12T13:50:59.898Z,99.90
2022-09-12T13:53:28.562Z,99.90
2022-09-12T14:06:03.430Z,99.90
2022-09-12T14:08:31.641Z,99.90
2022-09-12T14:13:26.998Z,99.90
2022-09-12T14:15:54.935Z,99.90
2022-09-12T14:18:26.071Z,99.90
2022-09-12T14:20:54.144Z,99.90
2022-09-12T14:23:21.484Z,99.90
2022-09-12T14:25:49.341Z,99.90
2022-09-12T14:28:23.616Z,99.90
2022-09-12T14:31:09.313Z,99.90
2022-09-12T14:33:48.675Z,99.90
2022-09-12T14:36:19.740Z,99.90
2022-09-12T14:38:48.313Z,99.90
2022-09-12T14:41:21.689Z,99.90
2022-09-12T14:43:51.704Z,99.90
2022-09-12T14:46:24.519Z,99.90
2022-09-12T14:48:53.030Z,99.90
2022-09-12T14:51:22.356Z,99.90
2022-09-12T14:53:49.927Z,99.90
2022-09-12T15:01:10.724Z,99.90
2022-09-12T15:03:49.336Z,99.90
2022-09-12T15:06:29.835Z,99.90
2022-09-12T15:09:00.603Z,99.90
2022-09-12T15:11:27.536Z,99.90
2022-09-12T15:13:54.185Z,99.90
2022-09-12T15:16:20.886Z,99.90
2022-09-12T15:18:47.503Z,99.90
2022-09-12T15:21:17.070Z,99.90
2022-09-12T15:23:45.722Z,99.90
2022-09-12T15:26:13.937Z,99.90
2022-09-12T15:28:40.737Z,98.70
2022-09-12T15:31:11.778Z,98.60
2022-09-12T15:33:38.856Z,97.40
2022-09-12T15:36:11.886Z,99.90
2022-09-12T15:38:38.554Z,98.50
2022-09-12T15:41:09.603Z,98.30
2022-09-12T15:43:36.588Z,98.20
2022-09-12T15:46:06.755Z,98.30
2022-09-12T15:48:33.427Z,98.80
2022-09-12T15:51:01.799Z,97.30
2022-09-12T15:53:28.389Z,96.60
2022-09-12T15:58:22.196Z,95.60
2022-09-12T16:00:49.092Z,95.40
2022-09-12T16:03:19.471Z,95.60
2022-09-12T16:05:46.130Z,96.00
2022-09-12T16:08:12.829Z,96.10
2022-09-12T16:10:39.475Z,96.80
2022-09-12T16:13:06.187Z,96.50
2022-09-12T16:15:32.895Z,99.90
2022-09-12T16:17:59.612Z,96.40
2022-09-12T16:20:26.352Z,96.00
2022-09-12T16:25:20.694Z,99.90
2022-09-12T16:32:41.608Z,99.90
2022-09-12T16:35:08.491Z,99.90
2022-09-12T16:52:19.158Z,99.90
2022-09-12T16:54:45.811Z,99.90
2022-09-12T16:57:12.474Z,99.90
2022-09-12T16:59:39.103Z,99.90
2022-09-12T17:02:06.252Z,99.90
2022-09-12T17:04:33.018Z,99.90
2022-09-12T17:06:59.719Z,99.90
2022-09-12T17:09:28.136Z,99.90
2022-09-12T17:11:55.375Z,99.90
2022-09-12T17:14:22.252Z,99.90
2022-09-12T17:19:20.278Z,99.90
2022-09-12T17:21:50.181Z,99.90
2022-09-12T17:24:17.647Z,99.90
2022-09-12T17:29:12.679Z,99.90
2022-09-12T17:31:39.712Z,99.90
2022-09-12T17:34:06.859Z,99.90
2022-09-12T17:36:34.095Z,99.90
2022-09-12T17:39:01.774Z,99.90
2022-09-12T17:41:29.476Z,99.90
2022-09-12T17:43:57.262Z,99.90
2022-09-12T17:46:25.707Z,99.90
2022-09-12T17:48:52.972Z,99.90
2022-09-12T17:51:20.212Z,99.90
2022-09-12T17:53:47.483Z,99.90
2022-09-12T17:56:14.236Z,99.90
2022-09-12T17:58:40.979Z,99.90
2022-09-12T18:01:28.963Z,99.90
2022-09-12T18:03:56.779Z,99.90
2022-09-12T18:06:24.048Z,99.90
2022-09-12T18:11:18.330Z,99.90
2022-09-12T18:16:12.826Z,99.90
2022-09-12T18:18:39.627Z,99.90
2022-09-12T18:21:06.951Z,99.90
2022-09-12T18:23:34.027Z,99.90
2022-09-12T18:26:01.871Z,99.90
2022-09-12T18:28:28.557Z,99.90
2022-09-12T18:30:55.251Z,99.90
2022-09-12T18:33:24.048Z,99.90
2022-09-12T18:35:51.208Z,99.90
2022-09-12T18:38:17.746Z,99.90
2022-09-12T18:40:45.133Z,99.90
2022-09-12T18:43:11.742Z,99.90
2022-09-12T18:45:38.565Z,99.90
2022-09-12T18:48:06.142Z,99.90
2022-09-12T18:50:33.080Z,99.90
2022-09-12T18:53:00.070Z,99.90
2022-09-12T18:55:26.947Z,99.90
2022-09-12T18:57:54.952Z,99.90
2022-09-12T19:00:21.756Z,99.90
2022-09-12T19:02:48.422Z,99.90
2022-09-12T19:05:15.110Z,99.90
2022-09-12T19:07:41.795Z,99.90
2022-09-12T19:10:09.005Z,99.90
2022-09-12T19:12:35.685Z,99.90
2022-09-12T19:15:02.872Z,99.90
2022-09-12T19:17:29.590Z,99.90
2022-09-12T19:19:56.221Z,99.90
2022-09-12T19:22:22.875Z,99.90
2022-09-12T19:24:49.480Z,99.90
2022-09-12T19:27:16.209Z,99.90
2022-09-12T19:29:42.875Z,99.90
2022-09-12T19:32:09.524Z,99.90
2022-09-12T19:34:36.112Z,99.90
2022-09-12T19:37:02.763Z,99.90
2022-09-12T19:39:29.738Z,99.90
2022-09-12T19:41:56.562Z,99.90
2022-09-12T19:44:23.773Z,99.90
2022-09-12T19:46:51.073Z,99.90
2022-09-12T19:51:44.781Z,99.90
2022-09-12T19:54:11.412Z,99.90
2022-09-12T19:56:38.360Z,99.90
2022-09-12T19:59:05.093Z,99.90
2022-09-12T20:01:32.486Z,99.90
2022-09-12T20:03:59.189Z,99.90
2022-09-12T20:06:26.208Z,99.90
2022-09-12T20:08:52.840Z,99.90
2022-09-12T20:11:20.503Z,99.90
2022-09-12T20:13:47.174Z,99.90
2022-09-12T20:16:20.346Z,99.90
2022-09-12T20:18:49.411Z,99.90
2022-09-12T20:21:17.674Z,99.90
2022-09-12T20:23:44.985Z,99.90
2022-09-12T20:28:38.796Z,99.90
2022-09-12T20:31:11.176Z,99.90
2022-09-12T20:36:06.673Z,99.90
2022-09-12T20:38:33.322Z,99.90
2022-09-12T20:41:04.155Z,99.90
2022-09-12T20:43:30.774Z,99.90
2022-09-12T20:45:57.848Z,99.90
2022-09-12T20:48:25.119Z,99.90
2022-09-12T20:50:51.770Z,99.90
2022-09-12T20:53:18.629Z,99.90
2022-09-12T20:55:52.517Z,99.90
2022-09-12T20:58:20.078Z,99.90
2022-09-12T21:00:47.040Z,99.90
2022-09-12T21:03:14.199Z,99.90
2022-09-12T21:05:42.144Z,99.90
2022-09-12T21:13:02.870Z,99.90
2022-09-12T21:15:29.541Z,99.90
2022-09-12T21:17:56.111Z,99.90
2022-09-12T21:20:22.750Z,99.90
2022-09-12T21:22:49.395Z,99.90
2022-09-12T21:25:16.125Z,99.90
2022-09-12T21:27:42.770Z,99.90
2022-09-12T21:30:09.568Z,99.90
2022-09-12T21:32:36.201Z,99.90
2022-09-12T21:35:04.112Z,99.90
2022-09-12T21:37:30.827Z,99.90
2022-09-12T21:39:58.858Z,99.90
2022-09-12T21:42:25.676Z,99.90
2022-09-12T21:44:52.254Z,99.90
2022-09-12T21:47:18.917Z,99.90
2022-09-12T21:49:45.485Z,99.90
2022-09-12T21:52:12.735Z,99.90
2022-09-12T21:54:39.495Z,99.90
2022-09-12T21:57:06.146Z,99.90
2022-09-12T21:59:32.783Z,99.90
2022-09-12T22:01:59.704Z,99.90
2022-09-12T22:04:26.512Z,99.90
2022-09-12T22:06:53.179Z,99.90
2022-09-12T22:09:19.844Z,99.90
2022-09-12T22:11:46.982Z,99.90
2022-09-12T22:14:13.666Z,99.90
2022-09-12T22:16:40.501Z,99.90
2022-09-12T22:19:07.192Z,99.90
2022-09-12T22:21:33.837Z,99.90
2022-09-12T22:24:19.117Z,99.90
2022-09-12T22:26:46.358Z,99.90
2022-09-12T22:29:13.364Z,99.90
2022-09-12T22:31:40.534Z,99.90
2022-09-12T22:34:07.493Z,99.90
2022-09-12T22:36:38.191Z,99.90
2022-09-12T22:43:59.790Z,99.90
2022-09-12T22:46:26.536Z,99.90
2022-09-12T22:48:55.554Z,99.90
2022-09-12T22:51:22.194Z,99.90
2022-09-12T22:53:49.022Z,99.90
2022-09-12T22:56:15.907Z,99.90
2022-09-12T22:58:43.199Z,99.90
2022-09-12T23:01:10.464Z,99.90
2022-09-12T23:03:37.225Z,99.90
2022-09-12T23:06:04.246Z,99.90
2022-09-12T23:08:30.805Z,99.90
2022-09-12T23:11:04.684Z,99.90
2022-09-12T23:13:32.128Z,99.90
2022-09-12T23:15:59.402Z,99.90
2022-09-12T23:18:26.110Z,99.90
2022-09-12T23:23:20.798Z,99.90
2022-09-12T23:25:47.471Z,99.90
2022-09-12T23:28:14.682Z,99.90
2022-09-12T23:33:08.243Z,99.90
2022-09-12T23:35:34.789Z,99.90
2022-09-12T23:38:01.407Z,99.90
2022-09-12T23:40:27.941Z,99.90
2022-09-12T23:42:54.706Z,99.90
2022-09-12T23:45:21.284Z,99.90
2022-09-12T23:47:47.901Z,99.90
2022-09-12T23:50:14.531Z,99.90
2022-09-12T23:52:41.175Z,99.90
2022-09-12T23:55:07.994Z,99.90
2022-09-12T23:57:34.675Z,99.90
